sensor_id;sensor_type;location;lat;lon;timestamp;P1;durP1;ratioP1;P2;durP2;ratioP2
30896;SDS011;64229;52.246;21.054;2023-05-10T00:00:31;11.77;;;4.30;;
30896;SDS011;64229;52.246;21.054;2023-05-10T00:02:56;8.95;;;5.05;;
30896;SDS011;64229;52.246;21.054;2023-05-10T00:05:21;9.27;;;4.70;;
30896;SDS011;64229;52.246;21.054;2023-05-10T00:07:47;12.57;;;4.78;;
30896;SDS011;64229;52.246;21.054;2023-05-10T00:10:12;13.77;;;4.65;;
30896;SDS011;64229;52.246;21.054;2023-05-10T00:12:37;13.32;;;4.40;;
30896;SDS011;64229;52.246;21.054;2023-05-10T00:15:03;13.77;;;5.60;;
30896;SDS011;64229;52.246;21.054;2023-05-10T00:17:30;9.65;;;4.35;;
30896;SDS011;64229;52.246;21.054;2023-05-10T00:19:56;9.55;;;4.13;;
30896;SDS011;64229;52.246;21.054;2023-05-10T00:22:21;9.48;;;4.35;;
30896;SDS011;64229;52.246;21.054;2023-05-10T00:24:47;8.85;;;4.22;;
30896;SDS011;64229;52.246;21.054;2023-05-10T00:27:12;8.10;;;4.32;;
30896;SDS011;64229;52.246;21.054;2023-05-10T00:29:37;10.98;;;4.47;;
30896;SDS011;64229;52.246;21.054;2023-05-10T00:32:03;7.47;;;4.28;;
30896;SDS011;64229;52.246;21.054;2023-05-10T00:34:28;10.05;;;4.80;;
30896;SDS011;64229;52.246;21.054;2023-05-10T00:36:54;9.48;;;4.38;;
30896;SDS011;64229;52.246;21.054;2023-05-10T00:39:19;10.35;;;4.50;;
30896;SDS011;64229;52.246;21.054;2023-05-10T00:41:45;6.53;;;3.80;;
30896;SDS011;64229;52.246;21.054;2023-05-10T00:44:10;8.60;;;4.60;;
30896;SDS011;64229;52.246;21.054;2023-05-10T00:46:36;7.53;;;4.00;;
30896;SDS011;64229;52.246;21.054;2023-05-10T00:49:01;8.48;;;4.63;;
30896;SDS011;64229;52.246;21.054;2023-05-10T00:51:27;10.50;;;4.57;;
30896;SDS011;64229;52.246;21.054;2023-05-10T00:53:52;9.27;;;4.32;;
30896;SDS011;64229;52.246;21.054;2023-05-10T00:56:18;9.00;;;4.30;;
30896;SDS011;64229;52.246;21.054;2023-05-10T00:58:47;9.13;;;4.00;;
30896;SDS011;64229;52.246;21.054;2023-05-10T01:01:13;9.02;;;4.47;;
30896;SDS011;64229;52.246;21.054;2023-05-10T01:03:38;7.55;;;4.45;;
30896;SDS011;64229;52.246;21.054;2023-05-10T01:06:05;8.95;;;5.10;;
30896;SDS011;64229;52.246;21.054;2023-05-10T01:08:30;8.27;;;3.95;;
30896;SDS011;64229;52.246;21.054;2023-05-10T01:10:56;10.90;;;3.97;;
30896;SDS011;64229;52.246;21.054;2023-05-10T01:13:55;12.55;;;4.80;;
30896;SDS011;64229;52.246;21.054;2023-05-10T01:16:17;11.02;;;4.30;;
30896;SDS011;64229;52.246;21.054;2023-05-10T01:18:42;7.65;;;4.03;;
30896;SDS011;64229;52.246;21.054;2023-05-10T01:26:35;7.05;;;3.83;;
30896;SDS011;64229;52.246;21.054;2023-05-10T01:29:18;7.30;;;3.85;;
30896;SDS011;64229;52.246;21.054;2023-05-10T01:32:15;6.68;;;3.70;;
30896;SDS011;64229;52.246;21.054;2023-05-10T01:37:21;9.23;;;4.07;;
30896;SDS011;64229;52.246;21.054;2023-05-10T01:40:05;8.88;;;3.85;;
30896;SDS011;64229;52.246;21.054;2023-05-10T01:42:36;8.45;;;4.47;;
30896;SDS011;64229;52.246;21.054;2023-05-10T01:47:43;6.35;;;3.63;;
30896;SDS011;64229;52.246;21.054;2023-05-10T01:50:22;14.93;;;4.43;;
30896;SDS011;64229;52.246;21.054;2023-05-10T01:52:54;11.13;;;3.97;;
30896;SDS011;64229;52.246;21.054;2023-05-10T01:55:22;8.05;;;3.92;;
30896;SDS011;64229;52.246;21.054;2023-05-10T01:57:53;11.52;;;4.32;;
30896;SDS011;64229;52.246;21.054;2023-05-10T02:00:25;12.98;;;4.10;;
30896;SDS011;64229;52.246;21.054;2023-05-10T02:02:52;10.23;;;3.97;;
30896;SDS011;64229;52.246;21.054;2023-05-10T02:05:19;9.35;;;4.05;;
30896;SDS011;64229;52.246;21.054;2023-05-10T02:07:46;10.18;;;4.43;;
30896;SDS011;64229;52.246;21.054;2023-05-10T02:10:12;9.50;;;4.85;;
30896;SDS011;64229;52.246;21.054;2023-05-10T02:12:41;12.55;;;4.30;;
30896;SDS011;64229;52.246;21.054;2023-05-10T02:15:08;8.63;;;4.10;;
30896;SDS011;64229;52.246;21.054;2023-05-10T02:17:35;7.40;;;3.55;;
30896;SDS011;64229;52.246;21.054;2023-05-10T02:20:03;9.63;;;4.22;;
30896;SDS011;64229;52.246;21.054;2023-05-10T02:22:31;12.80;;;4.47;;
30896;SDS011;64229;52.246;21.054;2023-05-10T02:24:57;7.80;;;4.43;;
30896;SDS011;64229;52.246;21.054;2023-05-10T02:27:24;11.50;;;4.13;;
30896;SDS011;64229;52.246;21.054;2023-05-10T02:29:52;11.93;;;4.20;;
30896;SDS011;64229;52.246;21.054;2023-05-10T02:32:19;7.40;;;3.83;;
30896;SDS011;64229;52.246;21.054;2023-05-10T02:34:47;12.13;;;4.13;;
30896;SDS011;64229;52.246;21.054;2023-05-10T02:37:17;6.60;;;3.83;;
30896;SDS011;64229;52.246;21.054;2023-05-10T02:39:46;10.93;;;4.22;;
30896;SDS011;64229;52.246;21.054;2023-05-10T02:42:20;13.90;;;4.20;;
30896;SDS011;64229;52.246;21.054;2023-05-10T02:44:50;8.35;;;3.58;;
30896;SDS011;64229;52.246;21.054;2023-05-10T02:47:17;9.63;;;4.03;;
30896;SDS011;64229;52.246;21.054;2023-05-10T02:49:43;9.15;;;4.57;;
30896;SDS011;64229;52.246;21.054;2023-05-10T02:52:09;9.45;;;4.65;;
30896;SDS011;64229;52.246;21.054;2023-05-10T02:54:43;8.52;;;3.83;;
30896;SDS011;64229;52.246;21.054;2023-05-10T02:59:39;10.88;;;4.68;;
30896;SDS011;64229;52.246;21.054;2023-05-10T03:02:05;10.65;;;4.30;;
30896;SDS011;64229;52.246;21.054;2023-05-10T03:04:31;9.98;;;4.18;;
30896;SDS011;64229;52.246;21.054;2023-05-10T03:06:56;8.40;;;4.32;;
30896;SDS011;64229;52.246;21.054;2023-05-10T03:09:22;10.45;;;4.03;;
30896;SDS011;64229;52.246;21.054;2023-05-10T03:17:15;6.72;;;3.97;;
30896;SDS011;64229;52.246;21.054;2023-05-10T03:20:04;14.02;;;4.28;;
30896;SDS011;64229;52.246;21.054;2023-05-10T03:22:36;10.80;;;4.03;;
30896;SDS011;64229;52.246;21.054;2023-05-10T03:25:06;8.23;;;3.75;;
30896;SDS011;64229;52.246;21.054;2023-05-10T03:27:33;12.50;;;4.10;;
30896;SDS011;64229;52.246;21.054;2023-05-10T03:30:01;9.10;;;4.10;;
30896;SDS011;64229;52.246;21.054;2023-05-10T03:32:28;10.93;;;4.10;;
30896;SDS011;64229;52.246;21.054;2023-05-10T03:34:55;12.40;;;4.82;;
30896;SDS011;64229;52.246;21.054;2023-05-10T03:37:20;6.85;;;4.00;;
30896;SDS011;64229;52.246;21.054;2023-05-10T03:39:45;8.13;;;3.90;;
30896;SDS011;64229;52.246;21.054;2023-05-10T03:42:11;11.68;;;4.10;;
30896;SDS011;64229;52.246;21.054;2023-05-10T03:44:37;11.18;;;3.70;;
30896;SDS011;64229;52.246;21.054;2023-05-10T03:47:03;9.95;;;4.43;;
30896;SDS011;64229;52.246;21.054;2023-05-10T03:49:29;7.88;;;3.72;;
30896;SDS011;64229;52.246;21.054;2023-05-10T03:51:55;9.40;;;4.20;;
30896;SDS011;64229;52.246;21.054;2023-05-10T03:54:20;11.68;;;4.90;;
30896;SDS011;64229;52.246;21.054;2023-05-10T03:56:46;9.75;;;4.18;;
30896;SDS011;64229;52.246;21.054;2023-05-10T03:59:12;8.60;;;4.15;;
30896;SDS011;64229;52.246;21.054;2023-05-10T04:01:38;9.52;;;3.88;;
30896;SDS011;64229;52.246;21.054;2023-05-10T04:04:03;8.77;;;4.38;;
30896;SDS011;64229;52.246;21.054;2023-05-10T04:06:29;6.85;;;3.60;;
30896;SDS011;64229;52.246;21.054;2023-05-10T04:08:54;7.72;;;3.45;;
30896;SDS011;64229;52.246;21.054;2023-05-10T04:11:20;6.85;;;3.75;;
30896;SDS011;64229;52.246;21.054;2023-05-10T04:13:46;11.93;;;4.60;;
30896;SDS011;64229;52.246;21.054;2023-05-10T04:16:12;6.80;;;3.97;;
30896;SDS011;64229;52.246;21.054;2023-05-10T04:18:37;11.32;;;4.30;;
30896;SDS011;64229;52.246;21.054;2023-05-10T04:21:02;8.05;;;3.85;;
30896;SDS011;64229;52.246;21.054;2023-05-10T04:23:28;11.80;;;3.80;;
30896;SDS011;64229;52.246;21.054;2023-05-10T04:25:59;7.40;;;4.32;;
30896;SDS011;64229;52.246;21.054;2023-05-10T04:28:25;8.27;;;3.78;;
30896;SDS011;64229;52.246;21.054;2023-05-10T04:30:51;8.80;;;4.05;;
30896;SDS011;64229;52.246;21.054;2023-05-10T04:33:16;12.43;;;4.47;;
30896;SDS011;64229;52.246;21.054;2023-05-10T04:35:41;7.05;;;3.47;;
30896;SDS011;64229;52.246;21.054;2023-05-10T04:38:07;6.82;;;3.67;;
30896;SDS011;64229;52.246;21.054;2023-05-10T04:40:32;9.50;;;3.72;;
30896;SDS011;64229;52.246;21.054;2023-05-10T04:42:57;7.15;;;3.63;;
30896;SDS011;64229;52.246;21.054;2023-05-10T04:45:23;9.27;;;3.88;;
30896;SDS011;64229;52.246;21.054;2023-05-10T04:47:48;13.40;;;3.75;;
30896;SDS011;64229;52.246;21.054;2023-05-10T04:50:13;10.07;;;3.65;;
30896;SDS011;64229;52.246;21.054;2023-05-10T04:52:39;8.32;;;3.90;;
30896;SDS011;64229;52.246;21.054;2023-05-10T04:55:04;8.55;;;4.05;;
30896;SDS011;64229;52.246;21.054;2023-05-10T04:57:32;8.27;;;3.75;;
30896;SDS011;64229;52.246;21.054;2023-05-10T04:59:57;6.55;;;4.20;;
30896;SDS011;64229;52.246;21.054;2023-05-10T05:02:23;6.97;;;3.70;;
30896;SDS011;64229;52.246;21.054;2023-05-10T05:04:48;9.57;;;3.80;;
30896;SDS011;64229;52.246;21.054;2023-05-10T05:07:14;8.35;;;3.17;;
30896;SDS011;64229;52.246;21.054;2023-05-10T05:09:39;9.93;;;3.88;;
30896;SDS011;64229;52.246;21.054;2023-05-10T05:12:05;8.80;;;4.20;;
30896;SDS011;64229;52.246;21.054;2023-05-10T05:14:30;6.57;;;3.28;;
30896;SDS011;64229;52.246;21.054;2023-05-10T05:16:55;10.65;;;4.05;;
30896;SDS011;64229;52.246;21.054;2023-05-10T05:19:21;7.07;;;3.58;;
30896;SDS011;64229;52.246;21.054;2023-05-10T05:21:47;9.30;;;4.13;;
30896;SDS011;64229;52.246;21.054;2023-05-10T05:24:12;8.32;;;3.83;;
30896;SDS011;64229;52.246;21.054;2023-05-10T05:26:38;8.85;;;3.40;;
30896;SDS011;64229;52.246;21.054;2023-05-10T05:29:03;10.15;;;4.28;;
30896;SDS011;64229;52.246;21.054;2023-05-10T05:31:29;8.77;;;4.05;;
30896;SDS011;64229;52.246;21.054;2023-05-10T05:33:55;6.68;;;3.38;;
30896;SDS011;64229;52.246;21.054;2023-05-10T05:36:20;9.57;;;4.07;;
30896;SDS011;64229;52.246;21.054;2023-05-10T05:38:46;9.05;;;4.30;;
30896;SDS011;64229;52.246;21.054;2023-05-10T05:41:11;7.45;;;3.45;;
30896;SDS011;64229;52.246;21.054;2023-05-10T05:43:37;9.13;;;3.80;;
30896;SDS011;64229;52.246;21.054;2023-05-10T05:46:02;7.53;;;3.30;;
30896;SDS011;64229;52.246;21.054;2023-05-10T05:48:29;10.95;;;3.55;;
30896;SDS011;64229;52.246;21.054;2023-05-10T05:50:55;7.53;;;3.35;;
30896;SDS011;64229;52.246;21.054;2023-05-10T05:53:21;11.88;;;3.80;;
30896;SDS011;64229;52.246;21.054;2023-05-10T05:55:56;11.77;;;4.50;;
30896;SDS011;64229;52.246;21.054;2023-05-10T05:58:23;6.63;;;3.38;;
30896;SDS011;64229;52.246;21.054;2023-05-10T06:00:48;11.80;;;3.30;;
30896;SDS011;64229;52.246;21.054;2023-05-10T06:03:14;9.43;;;3.50;;
30896;SDS011;64229;52.246;21.054;2023-05-10T06:05:40;8.48;;;3.00;;
30896;SDS011;64229;52.246;21.054;2023-05-10T06:08:05;7.75;;;3.13;;
30896;SDS011;64229;52.246;21.054;2023-05-10T06:10:30;6.22;;;3.03;;
30896;SDS011;64229;52.246;21.054;2023-05-10T06:12:56;8.63;;;3.10;;
30896;SDS011;64229;52.246;21.054;2023-05-10T06:15:21;9.05;;;4.07;;
30896;SDS011;64229;52.246;21.054;2023-05-10T06:17:47;9.75;;;3.20;;
30896;SDS011;64229;52.246;21.054;2023-05-10T06:20:14;9.63;;;2.80;;
30896;SDS011;64229;52.246;21.054;2023-05-10T06:22:40;6.45;;;2.85;;
30896;SDS011;64229;52.246;21.054;2023-05-10T06:25:05;6.07;;;2.90;;
30896;SDS011;64229;52.246;21.054;2023-05-10T06:27:31;8.57;;;3.47;;
30896;SDS011;64229;52.246;21.054;2023-05-10T06:29:56;7.40;;;2.88;;
30896;SDS011;64229;52.246;21.054;2023-05-10T06:32:22;9.27;;;2.92;;
30896;SDS011;64229;52.246;21.054;2023-05-10T06:34:47;7.43;;;2.92;;
30896;SDS011;64229;52.246;21.054;2023-05-10T06:37:12;8.98;;;2.83;;
30896;SDS011;64229;52.246;21.054;2023-05-10T06:39:38;5.78;;;2.50;;
30896;SDS011;64229;52.246;21.054;2023-05-10T06:42:03;8.20;;;3.75;;
30896;SDS011;64229;52.246;21.054;2023-05-10T06:44:29;8.27;;;2.58;;
30896;SDS011;64229;52.246;21.054;2023-05-10T06:46:55;9.00;;;3.65;;
30896;SDS011;64229;52.246;21.054;2023-05-10T06:49:20;6.15;;;2.70;;
30896;SDS011;64229;52.246;21.054;2023-05-10T06:51:46;7.40;;;2.40;;
30896;SDS011;64229;52.246;21.054;2023-05-10T06:54:11;6.95;;;2.55;;
30896;SDS011;64229;52.246;21.054;2023-05-10T06:56:36;6.22;;;2.55;;
30896;SDS011;64229;52.246;21.054;2023-05-10T06:59:02;9.27;;;2.63;;
30896;SDS011;64229;52.246;21.054;2023-05-10T07:01:28;5.05;;;2.33;;
30896;SDS011;64229;52.246;21.054;2023-05-10T07:03:53;9.20;;;2.65;;
30896;SDS011;64229;52.246;21.054;2023-05-10T07:06:18;5.95;;;2.85;;
30896;SDS011;64229;52.246;21.054;2023-05-10T07:08:44;7.10;;;2.40;;
30896;SDS011;64229;52.246;21.054;2023-05-10T07:11:09;12.98;;;2.40;;
30896;SDS011;64229;52.246;21.054;2023-05-10T07:13:35;6.25;;;1.95;;
30896;SDS011;64229;52.246;21.054;2023-05-10T07:16:01;6.55;;;2.40;;
30896;SDS011;64229;52.246;21.054;2023-05-10T07:18:27;4.63;;;1.80;;
30896;SDS011;64229;52.246;21.054;2023-05-10T07:20:53;5.57;;;2.10;;
30896;SDS011;64229;52.246;21.054;2023-05-10T07:23:18;3.25;;;2.03;;
30896;SDS011;64229;52.246;21.054;2023-05-10T07:25:44;5.18;;;1.83;;
30896;SDS011;64229;52.246;21.054;2023-05-10T07:28:10;8.07;;;2.03;;
30896;SDS011;64229;52.246;21.054;2023-05-10T07:30:36;7.78;;;2.25;;
30896;SDS011;64229;52.246;21.054;2023-05-10T07:33:01;3.65;;;1.80;;
30896;SDS011;64229;52.246;21.054;2023-05-10T07:35:26;7.68;;;2.10;;
30896;SDS011;64229;52.246;21.054;2023-05-10T07:37:52;6.20;;;1.90;;
30896;SDS011;64229;52.246;21.054;2023-05-10T07:40:17;3.58;;;1.80;;
30896;SDS011;64229;52.246;21.054;2023-05-10T07:42:42;6.07;;;1.80;;
30896;SDS011;64229;52.246;21.054;2023-05-10T07:45:08;3.20;;;1.40;;
30896;SDS011;64229;52.246;21.054;2023-05-10T07:47:34;3.65;;;1.55;;
30896;SDS011;64229;52.246;21.054;2023-05-10T07:49:59;4.30;;;1.70;;
30896;SDS011;64229;52.246;21.054;2023-05-10T07:52:24;3.67;;;1.70;;
30896;SDS011;64229;52.246;21.054;2023-05-10T07:54:50;4.38;;;1.80;;
30896;SDS011;64229;52.246;21.054;2023-05-10T07:57:15;9.65;;;2.33;;
30896;SDS011;64229;52.246;21.054;2023-05-10T07:59:42;8.55;;;1.48;;
30896;SDS011;64229;52.246;21.054;2023-05-10T08:02:08;5.63;;;1.92;;
30896;SDS011;64229;52.246;21.054;2023-05-10T08:04:33;7.72;;;2.00;;
30896;SDS011;64229;52.246;21.054;2023-05-10T08:06:58;7.17;;;1.70;;
30896;SDS011;64229;52.246;21.054;2023-05-10T08:09:24;3.97;;;1.60;;
30896;SDS011;64229;52.246;21.054;2023-05-10T08:11:49;7.70;;;1.67;;
30896;SDS011;64229;52.246;21.054;2023-05-10T08:14:15;5.88;;;1.52;;
30896;SDS011;64229;52.246;21.054;2023-05-10T08:16:41;3.85;;;1.60;;
30896;SDS011;64229;52.246;21.054;2023-05-10T08:19:06;3.15;;;1.63;;
30896;SDS011;64229;52.246;21.054;2023-05-10T08:21:32;3.95;;;1.42;;
30896;SDS011;64229;52.246;21.054;2023-05-10T08:28:47;3.90;;;1.77;;
30896;SDS011;64229;52.246;21.054;2023-05-10T08:31:13;3.63;;;1.55;;
30896;SDS011;64229;52.246;21.054;2023-05-10T08:33:38;5.57;;;1.60;;
30896;SDS011;64229;52.246;21.054;2023-05-10T08:36:03;5.88;;;1.73;;
30896;SDS011;64229;52.246;21.054;2023-05-10T08:38:29;5.38;;;1.75;;
30896;SDS011;64229;52.246;21.054;2023-05-10T08:40:55;5.43;;;1.63;;
30896;SDS011;64229;52.246;21.054;2023-05-10T08:43:25;4.00;;;1.67;;
30896;SDS011;64229;52.246;21.054;2023-05-10T08:45:53;2.65;;;1.60;;
30896;SDS011;64229;52.246;21.054;2023-05-10T08:48:19;2.55;;;1.52;;
30896;SDS011;64229;52.246;21.054;2023-05-10T08:50:47;5.00;;;1.60;;
30896;SDS011;64229;52.246;21.054;2023-05-10T08:53:15;5.28;;;1.65;;
30896;SDS011;64229;52.246;21.054;2023-05-10T08:55:41;3.08;;;1.35;;
30896;SDS011;64229;52.246;21.054;2023-05-10T08:58:08;4.20;;;1.60;;
30896;SDS011;64229;52.246;21.054;2023-05-10T09:00:34;3.72;;;1.27;;
30896;SDS011;64229;52.246;21.054;2023-05-10T09:03:00;3.97;;;1.80;;
30896;SDS011;64229;52.246;21.054;2023-05-10T09:05:26;7.10;;;1.35;;
30896;SDS011;64229;52.246;21.054;2023-05-10T09:07:52;3.45;;;1.58;;
30896;SDS011;64229;52.246;21.054;2023-05-10T09:10:17;4.57;;;1.50;;
30896;SDS011;64229;52.246;21.054;2023-05-10T09:12:43;7.53;;;1.52;;
30896;SDS011;64229;52.246;21.054;2023-05-10T09:15:10;3.65;;;1.63;;
30896;SDS011;64229;52.246;21.054;2023-05-10T09:17:36;6.68;;;1.50;;
30896;SDS011;64229;52.246;21.054;2023-05-10T09:20:03;2.33;;;1.50;;
30896;SDS011;64229;52.246;21.054;2023-05-10T09:22:30;3.55;;;1.40;;
30896;SDS011;64229;52.246;21.054;2023-05-10T09:27:34;4.68;;;1.67;;
30896;SDS011;64229;52.246;21.054;2023-05-10T09:30:00;6.53;;;1.60;;
30896;SDS011;64229;52.246;21.054;2023-05-10T09:32:36;6.10;;;1.67;;
30896;SDS011;64229;52.246;21.054;2023-05-10T09:35:08;3.60;;;1.58;;
30896;SDS011;64229;52.246;21.054;2023-05-10T09:37:44;4.95;;;1.80;;
30896;SDS011;64229;52.246;21.054;2023-05-10T09:42:42;5.82;;;1.27;;
30896;SDS011;64229;52.246;21.054;2023-05-10T09:45:15;2.55;;;1.50;;
30896;SDS011;64229;52.246;21.054;2023-05-10T09:47:40;10.70;;;1.70;;
30896;SDS011;64229;52.246;21.054;2023-05-10T09:50:06;8.10;;;1.73;;
30896;SDS011;64229;52.246;21.054;2023-05-10T09:52:45;6.68;;;1.48;;
30896;SDS011;64229;52.246;21.054;2023-05-10T09:55:25;3.80;;;1.80;;
30896;SDS011;64229;52.246;21.054;2023-05-10T09:58:02;9.40;;;1.63;;
30896;SDS011;64229;52.246;21.054;2023-05-10T10:00:33;5.55;;;1.55;;
30896;SDS011;64229;52.246;21.054;2023-05-10T10:03:00;4.63;;;1.60;;
30896;SDS011;64229;52.246;21.054;2023-05-10T10:05:30;5.50;;;2.47;;
30896;SDS011;64229;52.246;21.054;2023-05-10T10:07:59;2.53;;;1.67;;
30896;SDS011;64229;52.246;21.054;2023-05-10T10:10:26;3.20;;;1.52;;
30896;SDS011;64229;52.246;21.054;2023-05-10T10:12:52;4.78;;;1.80;;
30896;SDS011;64229;52.246;21.054;2023-05-10T10:15:19;2.80;;;1.50;;
30896;SDS011;64229;52.246;21.054;2023-05-10T10:17:45;4.97;;;2.40;;
30896;SDS011;64229;52.246;21.054;2023-05-10T10:20:12;5.03;;;1.77;;
30896;SDS011;64229;52.246;21.054;2023-05-10T10:22:37;3.58;;;2.08;;
30896;SDS011;64229;52.246;21.054;2023-05-10T10:25:03;6.18;;;1.85;;
30896;SDS011;64229;52.246;21.054;2023-05-10T10:35:31;3.25;;;1.60;;
30896;SDS011;64229;52.246;21.054;2023-05-10T10:37:57;4.82;;;1.95;;
30896;SDS011;64229;52.246;21.054;2023-05-10T10:40:30;3.53;;;1.98;;
30896;SDS011;64229;52.246;21.054;2023-05-10T10:42:57;5.78;;;1.77;;
30896;SDS011;64229;52.246;21.054;2023-05-10T10:45:23;5.63;;;1.80;;
30896;SDS011;64229;52.246;21.054;2023-05-10T10:50:47;5.50;;;1.60;;
30896;SDS011;64229;52.246;21.054;2023-05-10T10:53:12;6.85;;;1.67;;
30896;SDS011;64229;52.246;21.054;2023-05-10T10:55:47;9.50;;;3.13;;
30896;SDS011;64229;52.246;21.054;2023-05-10T10:58:29;4.15;;;1.60;;
30896;SDS011;64229;52.246;21.054;2023-05-10T11:01:08;5.13;;;1.75;;
30896;SDS011;64229;52.246;21.054;2023-05-10T11:03:36;5.90;;;1.63;;
30896;SDS011;64229;52.246;21.054;2023-05-10T11:06:01;3.13;;;1.80;;
30896;SDS011;64229;52.246;21.054;2023-05-10T11:13:33;6.47;;;2.17;;
30896;SDS011;64229;52.246;21.054;2023-05-10T11:21:30;6.20;;;1.90;;
30896;SDS011;64229;52.246;21.054;2023-05-10T11:23:58;3.33;;;1.77;;
30896;SDS011;64229;52.246;21.054;2023-05-10T11:26:24;8.35;;;2.53;;
30896;SDS011;64229;52.246;21.054;2023-05-10T11:28:51;5.80;;;1.52;;
30896;SDS011;64229;52.246;21.054;2023-05-10T11:31:20;8.48;;;2.15;;
30896;SDS011;64229;52.246;21.054;2023-05-10T11:33:46;5.32;;;1.67;;
30896;SDS011;64229;52.246;21.054;2023-05-10T11:36:14;5.60;;;1.60;;
30896;SDS011;64229;52.246;21.054;2023-05-10T11:38:41;5.50;;;2.35;;
30896;SDS011;64229;52.246;21.054;2023-05-10T11:41:10;3.10;;;1.60;;
30896;SDS011;64229;52.246;21.054;2023-05-10T11:43:36;5.47;;;1.92;;
30896;SDS011;64229;52.246;21.054;2023-05-10T11:46:04;5.25;;;1.90;;
30896;SDS011;64229;52.246;21.054;2023-05-10T11:48:31;6.13;;;1.65;;
30896;SDS011;64229;52.246;21.054;2023-05-10T11:50:56;3.53;;;1.60;;
30896;SDS011;64229;52.246;21.054;2023-05-10T11:53:22;5.10;;;1.58;;
30896;SDS011;64229;52.246;21.054;2023-05-10T11:55:50;5.53;;;1.75;;
30896;SDS011;64229;52.246;21.054;2023-05-10T11:58:16;6.53;;;1.52;;
30896;SDS011;64229;52.246;21.054;2023-05-10T12:00:43;2.70;;;1.30;;
30896;SDS011;64229;52.246;21.054;2023-05-10T12:03:10;7.28;;;1.50;;
30896;SDS011;64229;52.246;21.054;2023-05-10T12:05:36;6.43;;;1.80;;
30896;SDS011;64229;52.246;21.054;2023-05-10T12:08:11;4.80;;;1.52;;
30896;SDS011;64229;52.246;21.054;2023-05-10T12:10:40;5.28;;;1.85;;
30896;SDS011;64229;52.246;21.054;2023-05-10T12:13:10;5.82;;;2.00;;
30896;SDS011;64229;52.246;21.054;2023-05-10T12:15:40;4.65;;;1.90;;
30896;SDS011;64229;52.246;21.054;2023-05-10T12:18:13;3.22;;;1.60;;
30896;SDS011;64229;52.246;21.054;2023-05-10T12:20:39;7.03;;;1.73;;
30896;SDS011;64229;52.246;21.054;2023-05-10T12:23:07;4.03;;;1.70;;
30896;SDS011;64229;52.246;21.054;2023-05-10T12:25:34;10.23;;;2.13;;
30896;SDS011;64229;52.246;21.054;2023-05-10T12:28:05;4.65;;;1.80;;
30896;SDS011;64229;52.246;21.054;2023-05-10T12:30:33;5.57;;;1.60;;
30896;SDS011;64229;52.246;21.054;2023-05-10T12:33:00;4.10;;;1.90;;
30896;SDS011;64229;52.246;21.054;2023-05-10T12:35:38;3.00;;;1.73;;
30896;SDS011;64229;52.246;21.054;2023-05-10T12:38:24;5.85;;;1.65;;
30896;SDS011;64229;52.246;21.054;2023-05-10T12:40:51;3.47;;;1.65;;
30896;SDS011;64229;52.246;21.054;2023-05-10T12:43:16;5.70;;;1.73;;
30896;SDS011;64229;52.246;21.054;2023-05-10T12:45:42;2.65;;;1.38;;
30896;SDS011;64229;52.246;21.054;2023-05-10T12:48:07;3.25;;;1.42;;
30896;SDS011;64229;52.246;21.054;2023-05-10T12:50:32;5.60;;;2.13;;
30896;SDS011;64229;52.246;21.054;2023-05-10T12:52:58;6.13;;;2.05;;
30896;SDS011;64229;52.246;21.054;2023-05-10T12:55:23;6.38;;;1.85;;
30896;SDS011;64229;52.246;21.054;2023-05-10T12:57:48;3.08;;;1.70;;
30896;SDS011;64229;52.246;21.054;2023-05-10T13:00:14;7.80;;;1.90;;
30896;SDS011;64229;52.246;21.054;2023-05-10T13:02:39;3.67;;;1.50;;
30896;SDS011;64229;52.246;21.054;2023-05-10T13:05:05;2.83;;;1.52;;
30896;SDS011;64229;52.246;21.054;2023-05-10T13:07:31;5.35;;;2.08;;
30896;SDS011;64229;52.246;21.054;2023-05-10T13:09:56;5.32;;;1.70;;
30896;SDS011;64229;52.246;21.054;2023-05-10T13:12:21;4.88;;;1.83;;
30896;SDS011;64229;52.246;21.054;2023-05-10T13:14:47;5.72;;;1.42;;
30896;SDS011;64229;52.246;21.054;2023-05-10T13:17:12;5.25;;;1.73;;
30896;SDS011;64229;52.246;21.054;2023-05-10T13:19:37;4.88;;;2.17;;
30896;SDS011;64229;52.246;21.054;2023-05-10T13:22:03;4.10;;;1.75;;
30896;SDS011;64229;52.246;21.054;2023-05-10T13:24:28;6.07;;;1.85;;
30896;SDS011;64229;52.246;21.054;2023-05-10T13:26:53;2.60;;;1.80;;
30896;SDS011;64229;52.246;21.054;2023-05-10T13:29:19;6.43;;;1.67;;
30896;SDS011;64229;52.246;21.054;2023-05-10T13:31:45;5.60;;;1.95;;
30896;SDS011;64229;52.246;21.054;2023-05-10T13:34:11;4.50;;;2.00;;
30896;SDS011;64229;52.246;21.054;2023-05-10T13:36:36;6.15;;;1.75;;
30896;SDS011;64229;52.246;21.054;2023-05-10T13:39:01;4.57;;;1.48;;
30896;SDS011;64229;52.246;21.054;2023-05-10T13:41:28;5.35;;;1.73;;
30896;SDS011;64229;52.246;21.054;2023-05-10T13:43:53;6.80;;;1.75;;
30896;SDS011;64229;52.246;21.054;2023-05-10T13:46:19;3.70;;;1.77;;
30896;SDS011;64229;52.246;21.054;2023-05-10T13:48:44;8.68;;;2.10;;
30896;SDS011;64229;52.246;21.054;2023-05-10T13:51:09;5.85;;;1.65;;
30896;SDS011;64229;52.246;21.054;2023-05-10T13:53:35;6.50;;;1.95;;
30896;SDS011;64229;52.246;21.054;2023-05-10T13:56:00;3.17;;;1.80;;
30896;SDS011;64229;52.246;21.054;2023-05-10T13:58:27;2.70;;;1.70;;
30896;SDS011;64229;52.246;21.054;2023-05-10T14:00:52;6.25;;;1.67;;
30896;SDS011;64229;52.246;21.054;2023-05-10T14:03:17;5.85;;;1.80;;
30896;SDS011;64229;52.246;21.054;2023-05-10T14:05:43;2.83;;;1.60;;
30896;SDS011;64229;52.246;21.054;2023-05-10T14:08:09;2.20;;;1.30;;
30896;SDS011;64229;52.246;21.054;2023-05-10T14:10:35;4.30;;;1.58;;
30896;SDS011;64229;52.246;21.054;2023-05-10T14:13:01;4.72;;;1.80;;
30896;SDS011;64229;52.246;21.054;2023-05-10T14:15:28;4.22;;;1.65;;
30896;SDS011;64229;52.246;21.054;2023-05-10T14:17:53;4.20;;;1.67;;
30896;SDS011;64229;52.246;21.054;2023-05-10T14:20:18;2.45;;;1.65;;
30896;SDS011;64229;52.246;21.054;2023-05-10T14:22:44;6.00;;;1.80;;
30896;SDS011;64229;52.246;21.054;2023-05-10T14:25:09;3.10;;;1.77;;
30896;SDS011;64229;52.246;21.054;2023-05-10T14:27:35;5.18;;;1.75;;
30896;SDS011;64229;52.246;21.054;2023-05-10T14:30:00;6.40;;;1.55;;
30896;SDS011;64229;52.246;21.054;2023-05-10T14:32:26;3.72;;;1.58;;
30896;SDS011;64229;52.246;21.054;2023-05-10T14:34:52;5.93;;;2.55;;
30896;SDS011;64229;52.246;21.054;2023-05-10T14:37:17;4.28;;;1.52;;
30896;SDS011;64229;52.246;21.054;2023-05-10T14:39:43;3.75;;;1.40;;
30896;SDS011;64229;52.246;21.054;2023-05-10T14:42:08;5.68;;;1.70;;
30896;SDS011;64229;52.246;21.054;2023-05-10T14:44:33;3.22;;;1.38;;
30896;SDS011;64229;52.246;21.054;2023-05-10T14:46:59;5.95;;;1.70;;
30896;SDS011;64229;52.246;21.054;2023-05-10T14:49:24;4.50;;;1.65;;
30896;SDS011;64229;52.246;21.054;2023-05-10T14:51:51;3.30;;;1.50;;
30896;SDS011;64229;52.246;21.054;2023-05-10T14:54:16;5.70;;;1.75;;
30896;SDS011;64229;52.246;21.054;2023-05-10T14:56:42;5.35;;;1.63;;
30896;SDS011;64229;52.246;21.054;2023-05-10T14:59:07;5.25;;;1.70;;
30896;SDS011;64229;52.246;21.054;2023-05-10T15:01:33;3.60;;;1.60;;
30896;SDS011;64229;52.246;21.054;2023-05-10T15:04:00;5.60;;;1.58;;
30896;SDS011;64229;52.246;21.054;2023-05-10T15:06:31;4.78;;;1.52;;
30896;SDS011;64229;52.246;21.054;2023-05-10T15:08:58;3.58;;;1.67;;
30896;SDS011;64229;52.246;21.054;2023-05-10T15:11:24;4.63;;;1.70;;
30896;SDS011;64229;52.246;21.054;2023-05-10T15:13:50;2.65;;;1.75;;
30896;SDS011;64229;52.246;21.054;2023-05-10T15:16:15;3.90;;;1.40;;
30896;SDS011;64229;52.246;21.054;2023-05-10T15:18:40;4.03;;;1.85;;
30896;SDS011;64229;52.246;21.054;2023-05-10T15:21:06;5.90;;;1.50;;